createdAt,value
2023-02-15T00:00:43.972Z,9.23
2023-02-15T00:03:20.632Z,9.23
2023-02-15T00:05:54.423Z,9.17
2023-02-15T00:08:30.581Z,10.17
2023-02-15T00:11:09.349Z,10.47
2023-02-15T00:13:45.095Z,10.17
2023-02-15T00:16:18.525Z,10.70
2023-02-15T00:18:54.931Z,9.93
2023-02-15T00:21:28.748Z,10.30
2023-02-15T00:24:07.332Z,8.90
2023-02-15T00:26:42.160Z,8.70
2023-02-15T00:29:20.291Z,8.73
2023-02-15T00:31:54.830Z,9.33
2023-02-15T00:34:30.010Z,10.27
2023-02-15T00:37:03.777Z,9.40
2023-02-15T00:39:40.345Z,9.83
2023-02-15T00:42:14.450Z,9.67
2023-02-15T00:44:49.483Z,10.97
2023-02-15T00:47:23.577Z,11.07
2023-02-15T00:49:57.376Z,10.20
2023-02-15T00:52:31.212Z,10.17
2023-02-15T00:55:08.494Z,10.70
2023-02-15T00:57:42.405Z,10.77
2023-02-15T01:00:18.613Z,11.47
2023-02-15T01:02:53.305Z,11.57
2023-02-15T01:05:27.172Z,11.27
2023-02-15T01:08:01.881Z,11.03
2023-02-15T01:10:38.537Z,9.87
2023-02-15T01:13:12.560Z,10.47
2023-02-15T01:15:48.456Z,9.37
2023-02-15T01:18:25.393Z,10.77
2023-02-15T01:21:00.167Z,10.00
2023-02-15T01:23:35.884Z,9.57
2023-02-15T01:26:13.318Z,9.93
2023-02-15T01:28:47.933Z,9.33
2023-02-15T01:31:23.977Z,8.93
2023-02-15T01:33:57.514Z,9.53
2023-02-15T01:36:31.773Z,8.80
2023-02-15T01:39:06.464Z,9.50
2023-02-15T01:41:42.679Z,9.70
2023-02-15T01:44:51.816Z,9.10
2023-02-15T01:47:33.910Z,9.70
2023-02-15T01:50:16.116Z,8.67
2023-02-15T01:52:56.938Z,10.30
2023-02-15T01:55:37.986Z,9.97
2023-02-15T01:58:14.147Z,8.67
2023-02-15T02:00:48.623Z,9.77
2023-02-15T02:03:38.424Z,9.57
2023-02-15T02:06:15.432Z,9.63
2023-02-15T02:08:49.650Z,9.30
2023-02-15T02:11:23.757Z,9.27
2023-02-15T02:14:00.195Z,10.53
2023-02-15T02:16:50.489Z,9.90
2023-02-15T02:20:16.189Z,8.63
2023-02-15T02:23:27.424Z,9.23
2023-02-15T02:27:02.288Z,10.13
2023-02-15T02:30:30.016Z,8.83
2023-02-15T02:33:38.349Z,9.70
2023-02-15T02:36:24.601Z,9.90
2023-02-15T02:39:20.970Z,9.50
2023-02-15T02:42:04.576Z,9.67
2023-02-15T02:44:46.024Z,9.30
2023-02-15T02:47:26.834Z,10.03
2023-02-15T02:50:07.096Z,9.73
2023-02-15T02:52:46.290Z,10.73
2023-02-15T02:55:31.043Z,9.93
2023-02-15T02:58:12.025Z,9.87
2023-02-15T03:00:54.185Z,9.60
2023-02-15T03:03:34.386Z,9.93
2023-02-15T03:06:19.212Z,9.37
2023-02-15T03:09:02.231Z,9.33
2023-02-15T03:11:37.061Z,9.57
2023-02-15T03:14:11.868Z,8.27
2023-02-15T03:16:51.797Z,8.70
2023-02-15T03:19:30.877Z,10.00
2023-02-15T03:22:12.791Z,9.23
2023-02-15T03:24:53.985Z,8.83
2023-02-15T03:27:37.347Z,10.77
2023-02-15T03:30:15.608Z,10.70
2023-02-15T03:32:53.375Z,10.40
2023-02-15T03:35:38.509Z,9.80
2023-02-15T03:38:23.713Z,9.77
2023-02-15T03:41:14.260Z,10.37
2023-02-15T03:43:55.829Z,10.60
2023-02-15T03:46:36.141Z,9.80
2023-02-15T03:49:16.899Z,10.30
2023-02-15T03:51:55.968Z,10.53
2023-02-15T03:54:47.206Z,10.00
2023-02-15T03:57:43.081Z,10.37
2023-02-15T04:00:39.419Z,9.17
2023-02-15T04:03:32.703Z,10.00
2023-02-15T04:06:07.116Z,11.07
2023-02-15T04:09:01.353Z,11.47
2023-02-15T04:11:36.796Z,9.27
2023-02-15T04:14:24.557Z,11.40
2023-02-15T04:16:59.743Z,10.20
2023-02-15T04:19:50.497Z,9.10
2023-02-15T04:22:41.740Z,11.07
2023-02-15T04:25:15.951Z,11.40
2023-02-15T04:27:55.285Z,11.50
2023-02-15T04:30:28.999Z,10.63
2023-02-15T04:33:03.053Z,10.33
2023-02-15T04:35:37.521Z,11.27
2023-02-15T04:38:11.489Z,11.30
2023-02-15T04:40:45.202Z,11.37
2023-02-15T04:43:20.709Z,10.93
2023-02-15T04:45:54.807Z,11.43
2023-02-15T04:48:28.367Z,9.83
2023-02-15T04:51:02.099Z,10.20
2023-02-15T04:53:35.972Z,11.37
2023-02-15T04:56:10.356Z,11.33
2023-02-15T04:58:45.518Z,11.13
2023-02-15T05:01:20.334Z,11.50
2023-02-15T05:03:54.849Z,10.97
2023-02-15T05:06:29.021Z,11.70
2023-02-15T05:09:03.303Z,11.17
2023-02-15T05:11:37.322Z,10.93
2023-02-15T05:14:12.887Z,11.30
2023-02-15T05:16:46.871Z,11.27
2023-02-15T05:19:20.442Z,11.37
2023-02-15T05:21:54.187Z,11.60
2023-02-15T05:24:45.737Z,10.50
2023-02-15T05:27:39.388Z,11.50
2023-02-15T05:30:17.271Z,11.53
2023-02-15T05:32:51.399Z,10.77
2023-02-15T05:35:25.705Z,11.57
2023-02-15T05:37:59.756Z,11.53
2023-02-15T05:40:33.831Z,11.83
2023-02-15T05:43:07.689Z,12.13
2023-02-15T05:45:42.686Z,11.37
2023-02-15T05:48:16.610Z,12.50
2023-02-15T05:51:01.452Z,10.63
2023-02-15T05:53:38.705Z,9.90
2023-02-15T05:56:14.644Z,11.07
2023-02-15T05:58:49.655Z,10.73
2023-02-15T06:01:25.166Z,11.37
2023-02-15T06:03:59.781Z,11.77
2023-02-15T06:06:35.874Z,12.30
2023-02-15T06:09:09.599Z,11.83
2023-02-15T06:11:43.475Z,12.50
2023-02-15T06:14:17.728Z,12.13
2023-02-15T06:16:53.052Z,11.47
2023-02-15T06:19:26.987Z,12.27
2023-02-15T06:22:01.355Z,12.20
2023-02-15T06:24:35.080Z,12.20
2023-02-15T06:27:09.229Z,11.37
2023-02-15T06:29:43.618Z,12.27
2023-02-15T06:32:19.267Z,11.73
2023-02-15T06:34:53.130Z,12.50
2023-02-15T06:37:27.985Z,12.83
2023-02-15T06:40:03.763Z,12.57
2023-02-15T06:42:37.917Z,11.47
2023-02-15T06:45:13.112Z,11.47
2023-02-15T06:47:49.033Z,12.27
2023-02-15T06:50:23.681Z,12.57
2023-02-15T06:52:59.630Z,12.93
2023-02-15T06:55:33.823Z,13.03
2023-02-15T06:58:07.748Z,12.10
2023-02-15T07:00:45.030Z,12.53
2023-02-15T07:03:20.971Z,13.43
2023-02-15T07:05:58.451Z,12.57
2023-02-15T07:08:33.333Z,12.67
2023-02-15T07:11:27.118Z,12.47
2023-02-15T07:14:00.991Z,12.47
2023-02-15T07:16:35.388Z,13.70
2023-02-15T07:19:10.963Z,13.63
2023-02-15T07:21:46.996Z,14.33
2023-02-15T07:24:20.992Z,13.30
2023-02-15T07:26:54.817Z,14.57
2023-02-15T07:29:28.840Z,15.57
2023-02-15T07:32:02.766Z,14.80
2023-02-15T07:34:38.464Z,14.90
2023-02-15T07:37:12.697Z,14.97
2023-02-15T07:39:46.808Z,15.70
2023-02-15T07:42:20.898Z,15.33
2023-02-15T07:44:55.167Z,15.50
2023-02-15T07:47:31.259Z,16.03
2023-02-15T07:50:08.312Z,16.07
2023-02-15T07:52:42.314Z,16.13
2023-02-15T07:55:16.576Z,18.30
2023-02-15T07:57:55.244Z,18.30
2023-02-15T08:00:31.157Z,17.03
2023-02-15T08:03:18.540Z,18.30
2023-02-15T08:05:54.243Z,17.87
2023-02-15T08:08:43.927Z,18.20
2023-02-15T08:11:33.859Z,17.50
2023-02-15T08:14:10.633Z,16.10
2023-02-15T08:16:48.137Z,16.90
2023-02-15T08:19:25.055Z,16.40
2023-02-15T08:22:03.557Z,15.67
2023-02-15T08:24:39.915Z,16.03
2023-02-15T08:27:13.945Z,14.97
2023-02-15T08:29:48.062Z,14.57
2023-02-15T08:32:21.897Z,13.97
2023-02-15T08:34:56.446Z,14.17
2023-02-15T08:37:31.825Z,13.63
2023-02-15T08:40:06.357Z,14.03
2023-02-15T08:42:40.089Z,14.03
2023-02-15T08:45:14.009Z,14.80
2023-02-15T08:47:47.931Z,13.50
2023-02-15T08:50:21.760Z,12.87
2023-02-15T08:52:58.525Z,14.00
2023-02-15T08:55:32.484Z,13.03
2023-02-15T08:58:06.345Z,12.53
2023-02-15T09:00:40.144Z,13.20
2023-02-15T09:03:13.954Z,13.73
2023-02-15T09:05:48.036Z,13.47
2023-02-15T09:08:23.313Z,11.90
2023-02-15T09:11:06.218Z,12.43
2023-02-15T09:13:41.672Z,12.50
2023-02-15T09:16:17.705Z,12.70
2023-02-15T09:18:52.709Z,12.40
2023-02-15T09:21:28.373Z,11.80
2023-02-15T09:24:07.392Z,12.30
2023-02-15T09:26:43.688Z,11.73
2023-02-15T09:29:19.686Z,11.90
2023-02-15T09:31:54.786Z,12.07
2023-02-15T09:34:28.655Z,10.80
2023-02-15T09:37:04.175Z,11.93
2023-02-15T09:39:43.828Z,11.53
2023-02-15T09:43:01.863Z,11.63
2023-02-15T09:46:02.003Z,10.37
2023-02-15T09:48:46.568Z,10.57
2023-02-15T09:51:50.917Z,11.37
2023-02-15T09:54:50.228Z,10.20
2023-02-15T09:57:36.047Z,10.37
2023-02-15T10:00:25.525Z,11.27
2023-02-15T10:03:56.868Z,10.20
2023-02-15T10:06:43.333Z,9.97
2023-02-15T10:09:50.428Z,10.27
2023-02-15T10:13:00.005Z,10.20
2023-02-15T10:15:57.137Z,10.53
2023-02-15T10:19:03.749Z,10.33
2023-02-15T10:21:57.336Z,9.60
2023-02-15T10:24:56.052Z,9.40
2023-02-15T10:27:39.354Z,10.10
2023-02-15T10:30:16.011Z,9.27
2023-02-15T10:33:03.338Z,9.17
2023-02-15T10:35:53.723Z,9.40
2023-02-15T10:38:40.342Z,8.53
2023-02-15T10:41:38.754Z,9.87
2023-02-15T10:44:44.120Z,8.90
2023-02-15T10:47:42.760Z,8.70
2023-02-15T10:50:32.736Z,8.80
2023-02-15T10:53:27.321Z,8.60
2023-02-15T10:56:15.470Z,8.50
2023-02-15T10:59:09.930Z,8.30
2023-02-15T11:01:58.157Z,7.23
2023-02-15T11:05:00.416Z,7.53
2023-02-15T11:07:41.570Z,6.83
2023-02-15T11:10:30.413Z,6.90
2023-02-15T11:13:13.411Z,7.00
2023-02-15T11:15:54.174Z,6.83
2023-02-15T11:18:37.302Z,6.73
2023-02-15T11:21:20.886Z,6.13
2023-02-15T11:23:57.648Z,6.57
2023-02-15T11:26:37.040Z,6.37
2023-02-15T11:29:21.146Z,6.13
2023-02-15T11:31:59.975Z,5.93
2023-02-15T11:34:47.156Z,5.93
2023-02-15T11:37:31.138Z,5.73
2023-02-15T11:40:21.802Z,5.40
2023-02-15T11:43:01.160Z,5.57
2023-02-15T11:45:41.025Z,5.93
2023-02-15T11:48:17.358Z,5.93
2023-02-15T11:50:59.244Z,5.67
2023-02-15T11:53:38.524Z,5.70
2023-02-15T11:56:20.086Z,5.93
2023-02-15T11:58:59.351Z,5.70
2023-02-15T12:01:39.719Z,5.90
2023-02-15T12:04:26.776Z,6.17
2023-02-15T12:07:08.963Z,5.30
2023-02-15T12:09:53.302Z,6.13
2023-02-15T12:12:30.042Z,5.83
2023-02-15T12:15:07.434Z,5.73
2023-02-15T12:17:44.039Z,5.60
2023-02-15T12:20:32.453Z,5.70
2023-02-15T12:23:16.439Z,6.17
2023-02-15T12:25:56.428Z,5.73
2023-02-15T12:28:37.301Z,6.60
2023-02-15T12:31:25.370Z,6.30
2023-02-15T12:34:03.745Z,5.97
2023-02-15T12:36:48.882Z,6.03
2023-02-15T12:39:28.796Z,5.67
2023-02-15T12:42:07.523Z,6.00
2023-02-15T12:44:41.604Z,7.07
2023-02-15T12:47:28.878Z,6.30
2023-02-15T12:50:34.691Z,6.27
2023-02-15T12:53:16.425Z,6.10
2023-02-15T12:55:58.537Z,6.50
2023-02-15T12:58:34.917Z,6.50
2023-02-15T13:01:18.893Z,6.27
2023-02-15T13:04:01.579Z,6.03
2023-02-15T13:06:39.286Z,6.20
2023-02-15T13:09:22.390Z,6.47
2023-02-15T13:11:58.690Z,6.87
2023-02-15T13:14:34.678Z,6.30
2023-02-15T13:17:08.973Z,6.53
2023-02-15T13:19:47.340Z,7.17
2023-02-15T13:22:26.777Z,6.57
2023-02-15T13:25:06.910Z,5.53
2023-02-15T13:27:46.739Z,5.87
2023-02-15T13:30:27.781Z,6.40
2023-02-15T13:33:07.156Z,6.50
2023-02-15T13:35:47.336Z,6.97
2023-02-15T13:58:25.018Z,4.47
2023-02-15T14:01:21.576Z,5.63
2023-02-15T14:04:30.773Z,6.10
2023-02-15T14:07:31.373Z,6.57
2023-02-15T14:10:55.168Z,6.13
2023-02-15T14:14:07.907Z,6.27
2023-02-15T14:17:06.315Z,6.80
2023-02-15T14:19:51.128Z,5.80
2023-02-15T14:22:37.467Z,6.23
2023-02-15T14:25:30.300Z,5.60
2023-02-15T14:28:17.390Z,6.47
2023-02-15T14:30:54.704Z,6.57
2023-02-15T14:33:38.954Z,6.67
2023-02-15T14:36:20.921Z,6.53
2023-02-15T14:39:32.656Z,6.37
2023-02-15T14:42:20.984Z,5.77
2023-02-15T14:45:06.129Z,6.67
2023-02-15T14:47:53.922Z,5.87
2023-02-15T14:50:49.804Z,6.10
2023-02-15T14:53:40.212Z,6.20
2023-02-15T14:56:28.913Z,6.07
2023-02-15T14:59:23.400Z,6.20
2023-02-15T15:02:12.903Z,5.60
2023-02-15T15:05:05.275Z,6.77
2023-02-15T15:07:46.636Z,6.83
2023-02-15T15:10:46.997Z,5.80
2023-02-15T15:13:44.748Z,6.57
2023-02-15T15:16:50.372Z,5.40
2023-02-15T15:20:14.826Z,6.27
2023-02-15T15:22:51.258Z,5.57
2023-02-15T15:25:46.370Z,6.03
2023-02-15T15:29:06.938Z,7.40
2023-02-15T15:31:55.446Z,6.57
2023-02-15T15:35:18.672Z,5.73
2023-02-15T15:38:24.185Z,5.83
2023-02-15T15:41:21.108Z,5.97
2023-02-15T15:44:57.442Z,5.97
2023-02-15T15:48:26.243Z,6.30
2023-02-15T15:51:07.191Z,5.73
2023-02-15T15:53:49.847Z,6.10
2023-02-15T15:56:29.455Z,6.27
2023-02-15T15:59:12.804Z,5.23
2023-02-15T16:01:51.190Z,6.10
2023-02-15T16:04:32.441Z,6.13
2023-02-15T16:07:33.335Z,6.53
2023-02-15T16:10:24.915Z,6.70
2023-02-15T16:12:59.314Z,6.43
2023-02-15T16:15:39.756Z,6.00
2023-02-15T16:18:23.720Z,5.93
2023-02-15T16:21:02.373Z,6.13
2023-02-15T16:24:11.096Z,5.73
2023-02-15T16:27:29.338Z,6.00
2023-02-15T16:30:40.913Z,5.67
2023-02-15T16:33:20.073Z,6.53
2023-02-15T16:36:01.938Z,6.77
2023-02-15T16:39:13.080Z,6.40
2023-02-15T16:41:49.665Z,6.67
2023-02-15T16:44:33.957Z,7.43
2023-02-15T16:47:19.628Z,6.53
2023-02-15T16:50:02.779Z,6.90
2023-02-15T16:52:38.546Z,6.17
2023-02-15T16:55:26.899Z,6.33
2023-02-15T16:58:08.311Z,6.53
2023-02-15T17:00:48.724Z,6.57
2023-02-15T17:03:28.270Z,6.27
2023-02-15T17:06:23.959Z,7.63
2023-02-15T17:09:11.011Z,6.87
2023-02-15T17:11:50.821Z,6.40
2023-02-15T17:14:31.770Z,6.67
2023-02-15T17:17:12.208Z,5.60
2023-02-15T17:19:54.623Z,5.80
2023-02-15T17:22:31.979Z,6.23
2023-02-15T17:25:12.182Z,6.60
2023-02-15T17:28:00.972Z,6.03
2023-02-15T17:30:40.418Z,6.47
2023-02-15T17:33:40.177Z,7.07
2023-02-15T17:36:27.972Z,6.70
2023-02-15T17:39:12.545Z,6.40
2023-02-15T17:41:48.597Z,8.03
2023-02-15T17:44:25.221Z,8.23
2023-02-15T17:47:04.056Z,7.97
2023-02-15T17:49:42.617Z,8.10
2023-02-15T17:52:22.455Z,7.33
2023-02-15T17:55:13.620Z,7.73
2023-02-15T17:57:53.056Z,8.43
2023-02-15T18:00:47.701Z,8.17
2023-02-15T18:03:39.799Z,8.33
2023-02-15T18:06:33.541Z,8.13
2023-02-15T18:09:29.301Z,9.20
2023-02-15T18:12:05.633Z,8.27
2023-02-15T18:14:40.824Z,8.33
2023-02-15T18:17:25.582Z,8.17
2023-02-15T18:20:08.038Z,8.27
2023-02-15T18:22:44.604Z,8.03
2023-02-15T18:25:27.523Z,8.23
2023-02-15T18:28:02.340Z,8.97
2023-02-15T18:30:43.880Z,8.57
2023-02-15T18:33:38.391Z,8.03
2023-02-15T18:36:24.668Z,8.57
2023-02-15T18:39:08.912Z,8.47
2023-02-15T18:41:45.733Z,9.00
2023-02-15T18:44:19.829Z,9.30
2023-02-15T18:46:55.148Z,8.57
2023-02-15T18:49:34.473Z,8.90
2023-02-15T18:52:25.495Z,7.93
2023-02-15T18:57:58.761Z,8.67
2023-02-15T19:00:36.313Z,9.03
2023-02-15T19:03:22.470Z,8.70
2023-02-15T19:06:07.826Z,8.60
2023-02-15T19:08:50.844Z,7.93
2023-02-15T19:11:28.537Z,8.33
2023-02-15T19:14:07.751Z,8.57
2023-02-15T19:16:43.456Z,9.30
2023-02-15T19:19:19.203Z,8.43
2023-02-15T19:22:00.419Z,8.33
2023-02-15T19:24:42.724Z,8.33
2023-02-15T19:27:27.029Z,8.93
2023-02-15T19:30:19.094Z,9.23
2023-02-15T19:32:53.866Z,8.87
2023-02-15T19:35:35.703Z,8.73
2023-02-15T19:38:20.894Z,8.63
2023-02-15T19:41:07.549Z,8.90
2023-02-15T19:43:44.966Z,8.33
2023-02-15T19:46:20.597Z,8.73
2023-02-15T19:48:57.219Z,9.60
2023-02-15T19:51:33.296Z,8.23
2023-02-15T19:54:27.320Z,8.83
2023-02-15T19:57:06.250Z,8.10
2023-02-15T19:59:43.668Z,8.67
2023-02-15T20:02:20.559Z,8.73
2023-02-15T20:04:54.884Z,8.80
2023-02-15T20:07:31.296Z,9.70
2023-02-15T20:10:18.238Z,9.27
2023-02-15T20:12:58.461Z,8.57
2023-02-15T20:15:35.740Z,8.60
2023-02-15T20:18:12.403Z,10.23
2023-02-15T20:20:51.477Z,9.43
2023-02-15T20:23:50.378Z,9.53
2023-02-15T20:26:29.890Z,9.70
2023-02-15T20:29:05.959Z,8.77
2023-02-15T20:31:41.701Z,9.87
2023-02-15T20:34:17.594Z,9.50
2023-02-15T20:36:53.026Z,9.87
2023-02-15T20:39:30.175Z,9.63
2023-02-15T20:42:06.857Z,10.97
2023-02-15T20:44:43.471Z,10.77
2023-02-15T20:47:19.585Z,10.93
2023-02-15T20:49:55.363Z,9.17
2023-02-15T20:52:31.613Z,9.13
2023-02-15T20:55:22.608Z,10.27
2023-02-15T20:58:01.480Z,9.77
2023-02-15T21:00:35.700Z,10.37
2023-02-15T21:03:20.398Z,10.50
2023-02-15T21:05:55.389Z,10.50
2023-02-15T21:08:34.519Z,10.13
2023-02-15T21:11:22.448Z,9.53
2023-02-15T21:13:58.266Z,9.57
2023-02-15T21:16:34.526Z,9.10
2023-02-15T21:19:16.150Z,9.73
2023-02-15T21:21:55.268Z,9.93
2023-02-15T21:24:34.913Z,10.03
2023-02-15T21:27:14.802Z,10.03
2023-02-15T21:29:50.561Z,10.73
2023-02-15T21:32:26.637Z,10.47
2023-02-15T21:35:04.697Z,10.43
2023-02-15T21:37:40.217Z,10.83
2023-02-15T21:40:21.984Z,10.47
2023-02-15T21:43:14.035Z,10.33
2023-02-15T21:46:12.110Z,10.07
2023-02-15T21:48:46.776Z,9.27
2023-02-15T21:51:42.333Z,9.60
2023-02-15T21:54:19.774Z,10.10
2023-02-15T21:56:54.155Z,9.97
2023-02-15T21:59:28.859Z,11.50
2023-02-15T22:02:04.678Z,11.13
2023-02-15T22:04:41.437Z,10.97
2023-02-15T22:07:19.555Z,10.57
2023-02-15T22:09:54.363Z,10.63
2023-02-15T22:12:30.405Z,10.93
2023-02-15T22:15:05.908Z,10.73
2023-02-15T22:17:51.075Z,10.83
2023-02-15T22:20:27.282Z,11.33
2023-02-15T22:23:03.757Z,11.57
2023-02-15T22:25:39.033Z,11.10
2023-02-15T22:28:16.972Z,11.33
2023-02-15T22:30:50.586Z,11.33
2023-02-15T22:33:35.316Z,11.53
2023-02-15T22:36:30.035Z,9.77
2023-02-15T22:39:03.735Z,9.67
2023-02-15T22:41:37.590Z,10.53
2023-02-15T22:44:24.117Z,11.50
2023-02-15T22:47:00.448Z,11.60
2023-02-15T22:49:38.006Z,11.47
2023-02-15T22:52:15.726Z,11.67
2023-02-15T22:54:54.127Z,11.63
2023-02-15T22:57:36.121Z,11.70
2023-02-15T23:00:30.402Z,12.03
2023-02-15T23:03:19.506Z,13.10
2023-02-15T23:10:38.298Z,11.07
2023-02-15T23:13:35.572Z,11.77
2023-02-15T23:17:47.683Z,12.03
2023-02-15T23:20:23.716Z,10.47
2023-02-15T23:23:02.436Z,12.03
2023-02-15T23:25:40.646Z,11.83
2023-02-15T23:28:22.567Z,12.53
2023-02-15T23:31:00.691Z,11.53
2023-02-15T23:33:37.641Z,12.83
2023-02-15T23:36:31.346Z,11.60
2023-02-15T23:39:48.561Z,12.13
2023-02-15T23:42:39.542Z,11.43
2023-02-15T23:45:26.518Z,11.60
2023-02-15T23:48:32.909Z,11.57
2023-02-15T23:51:08.016Z,11.87
2023-02-15T23:53:45.496Z,12.00
2023-02-15T23:56:19.214Z,12.10
2023-02-15T23:58:56.782Z,12.03
